Time;durP1;ratioP1;P1;durP2;ratioP2;P2;SDS_P1;SDS_P2;PMS_P1;PMS_P2;Temp;Humidity;BMP_temperature;BMP_pressure;BME280_temperature;BME280_humidity;BME280_pressure;Samples;Min_cycle;Max_cycle;Signal;HPM_P1;HPM_P2
2023/05/23 00:00:33;;;;;;;6.38;5.32;;;;;;;;;;5054623;28;20055;-68
2023/05/23 00:02:59;;;;;;;5.90;4.97;;;;;;;;;;5054600;28;20035;-67
2023/05/23 00:05:26;;;;;;;8.10;5.13;;;;;;;;;;5054572;28;20505;-68
2023/05/23 00:07:52;;;;;;;14.02;5.15;;;;;;;;;;5054938;28;20029;-68
2023/05/23 00:10:18;;;;;;;6.78;4.40;;;;;;;;;;5054292;28;20023;-68
2023/05/23 00:12:46;;;;;;;9.73;4.68;;;;;;;;;;5054206;28;20498;-68
2023/05/23 00:15:13;;;;;;;10.15;5.50;;;;;;;;;;5054386;28;20028;-68
2023/05/23 00:17:40;;;;;;;6.78;5.28;;;;;;;;;;5054319;28;20412;-68
2023/05/23 00:20:10;;;;;;;8.00;5.53;;;;;;;;;;5052965;28;20031;-67
2023/05/23 00:22:47;;;;;;;12.65;6.30;;;;;;;;;;5054194;28;20040;-67
2023/05/23 00:25:13;;;;;;;10.73;6.60;;;;;;;;;;5054299;28;20078;-67
2023/05/23 00:27:39;;;;;;;7.05;6.30;;;;;;;;;;5053836;28;20029;-68
2023/05/23 00:30:06;;;;;;;9.32;6.47;;;;;;;;;;5054111;28;20021;-68
2023/05/23 00:32:33;;;;;;;21.08;7.15;;;;;;;;;;5053866;28;20067;-68
2023/05/23 00:34:59;;;;;;;18.77;7.05;;;;;;;;;;5054164;28;20037;-67
2023/05/23 00:37:25;;;;;;;19.45;7.43;;;;;;;;;;5053946;28;20025;-68
2023/05/23 00:39:52;;;;;;;18.98;6.75;;;;;;;;;;5054221;28;20028;-67
2023/05/23 00:42:18;;;;;;;11.75;6.53;;;;;;;;;;5053628;28;20029;-68
2023/05/23 00:44:44;;;;;;;10.35;5.85;;;;;;;;;;5053604;28;20025;-68
2023/05/23 00:47:12;;;;;;;11.98;6.03;;;;;;;;;;5053737;28;20036;-67
2023/05/23 00:49:39;;;;;;;8.90;6.18;;;;;;;;;;5053553;28;20146;-68
2023/05/23 00:52:06;;;;;;;10.63;6.05;;;;;;;;;;5053564;28;20027;-68
2023/05/23 00:54:33;;;;;;;8.40;5.75;;;;;;;;;;5053688;28;20025;-68
2023/05/23 00:56:59;;;;;;;16.98;6.40;;;;;;;;;;5053320;28;20401;-67
2023/05/23 00:59:26;;;;;;;9.90;6.28;;;;;;;;;;5053391;28;20021;-68
2023/05/23 01:01:54;;;;;;;6.60;5.43;;;;;;;;;;5052277;28;20040;-68
2023/05/23 01:04:25;;;;;;;9.27;5.90;;;;;;;;;;5053323;28;20031;-68
2023/05/23 01:06:51;;;;;;;;;;;;;;;;;;5053891;28;20452;-68
2023/05/23 01:09:19;;;;;;;10.65;5.70;;;;;;;;;;5053291;28;19908;-67
2023/05/23 01:12:01;;;;;;;17.85;6.15;;;;;;;;;;5053028;28;20047;-67
2023/05/23 01:14:30;;;;;;;19.08;6.43;;;;;;;;;;5053158;28;20407;-68
2023/05/23 01:17:00;;;;;;;6.82;5.72;;;;;;;;;;5053472;28;20031;-68
2023/05/23 01:19:39;;;;;;;9.05;5.97;;;;;;;;;;5053092;28;20017;-68
2023/05/23 01:22:11;;;;;;;8.95;6.15;;;;;;;;;;5053139;28;20043;-67
2023/05/23 01:24:43;;;;;;;10.10;5.32;;;;;;;;;;5052655;28;20013;-68
2023/05/23 01:27:16;;;;;;;9.32;5.78;;;;;;;;;;5053074;28;20029;-68
2023/05/23 01:29:46;;;;;;;12.13;6.10;;;;;;;;;;5053199;28;20021;-68
2023/05/23 01:32:14;;;;;;;10.05;5.95;;;;;;;;;;5052796;28;20047;-67
2023/05/23 01:34:41;;;;;;;7.93;5.32;;;;;;;;;;5085119;28;20443;-68
2023/05/23 01:37:08;;;;;;;6.45;5.32;;;;;;;;;;5052956;28;20024;-67
2023/05/23 01:39:34;;;;;;;10.68;5.30;;;;;;;;;;5052588;28;20028;-68
2023/05/23 01:42:01;;;;;;;10.20;5.47;;;;;;;;;;5052516;28;20418;-67
2023/05/23 01:44:28;;;;;;;7.72;5.30;;;;;;;;;;5052634;28;20051;-68
2023/05/23 01:46:54;;;;;;;6.47;5.85;;;;;;;;;;5052637;28;20047;-68
2023/05/23 01:49:22;;;;;;;6.70;5.53;;;;;;;;;;5052648;28;20024;-67
2023/05/23 01:51:48;;;;;;;7.88;5.55;;;;;;;;;;5052583;28;20032;-68
2023/05/23 01:54:15;;;;;;;9.90;5.78;;;;;;;;;;5052089;28;20483;-67
2023/05/23 01:56:42;;;;;;;7.93;5.70;;;;;;;;;;5052710;28;20035;-67
2023/05/23 01:59:09;;;;;;;6.32;5.72;;;;;;;;;;5052428;28;20025;-68
2023/05/23 02:01:35;;;;;;;6.30;5.35;;;;;;;;;;5052354;28;20086;-68
2023/05/23 02:04:02;;;;;;;8.35;5.15;;;;;;;;;;5052320;28;20025;-68
2023/05/23 02:06:28;;;;;;;5.50;4.95;;;;;;;;;;5052358;28;20023;-68
2023/05/23 02:08:54;;;;;;;12.07;4.93;;;;;;;;;;5052118;28;20025;-68
2023/05/23 02:11:21;;;;;;;7.38;4.90;;;;;;;;;;5052380;28;20037;-68
2023/05/23 02:13:47;;;;;;;9.90;5.10;;;;;;;;;;5051596;28;20051;-68
2023/05/23 02:16:14;;;;;;;6.70;5.30;;;;;;;;;;5052548;28;20025;-68
2023/05/23 02:18:40;;;;;;;8.82;4.88;;;;;;;;;;5052202;28;20530;-68
2023/05/23 02:21:07;;;;;;;6.32;5.72;;;;;;;;;;5052083;28;20041;-67
2023/05/23 02:23:33;;;;;;;13.05;5.35;;;;;;;;;;5051692;28;20031;-68
2023/05/23 02:25:59;;;;;;;12.18;5.85;;;;;;;;;;5052171;28;20021;-68
2023/05/23 02:28:26;;;;;;;47.95;5.25;;;;;;;;;;5052052;28;20032;-67
2023/05/23 02:30:52;;;;;;;23.00;6.13;;;;;;;;;;5052081;28;20025;-68
2023/05/23 02:33:18;;;;;;;25.88;6.20;;;;;;;;;;5052047;28;20024;-68
2023/05/23 02:35:45;;;;;;;32.30;5.93;;;;;;;;;;5052076;28;20025;-68
2023/05/23 02:38:11;;;;;;;7.97;5.75;;;;;;;;;;5051963;28;20029;-67
2023/05/23 02:40:37;;;;;;;6.60;5.60;;;;;;;;;;5051879;28;20090;-68
2023/05/23 02:43:03;;;;;;;8.98;5.65;;;;;;;;;;5051942;28;20520;-68
2023/05/23 02:45:30;;;;;;;10.10;5.75;;;;;;;;;;5052199;28;20074;-67
2023/05/23 02:47:56;;;;;;;8.32;6.40;;;;;;;;;;5051831;28;20028;-68
2023/05/23 02:50:23;;;;;;;5.68;5.07;;;;;;;;;;5051609;28;20025;-67
2023/05/23 02:52:49;;;;;;;12.15;5.95;;;;;;;;;;5051543;28;20393;-68
2023/05/23 02:55:15;;;;;;;9.25;5.65;;;;;;;;;;5052079;28;20028;-68
2023/05/23 02:57:42;;;;;;;18.40;5.82;;;;;;;;;;5051725;28;20658;-67
2023/05/23 03:00:09;;;;;;;21.33;5.75;;;;;;;;;;5051576;28;20039;-68
2023/05/23 03:02:35;;;;;;;15.48;5.90;;;;;;;;;;5051549;28;20029;-68
2023/05/23 03:05:02;;;;;;;9.30;6.03;;;;;;;;;;5051702;28;20490;-68
2023/05/23 03:07:29;;;;;;;10.95;6.25;;;;;;;;;;5051203;28;20025;-68
2023/05/23 03:09:55;;;;;;;11.68;5.95;;;;;;;;;;5051616;28;20017;-67
2023/05/23 03:12:22;;;;;;;7.25;5.85;;;;;;;;;;5051629;28;20025;-68
2023/05/23 03:14:48;;;;;;;10.95;5.63;;;;;;;;;;5051486;28;20404;-68
2023/05/23 03:17:15;;;;;;;6.50;5.35;;;;;;;;;;5051770;28;20021;-68
2023/05/23 03:19:41;;;;;;;7.10;5.32;;;;;;;;;;5051546;28;20037;-68
2023/05/23 03:22:07;;;;;;;8.30;6.00;;;;;;;;;;5051187;28;20051;-68
2023/05/23 03:24:34;;;;;;;16.50;7.00;;;;;;;;;;5051457;28;20051;-68
2023/05/23 03:27:00;;;;;;;26.88;6.70;;;;;;;;;;5055381;28;20035;-68
2023/05/23 03:29:27;;;;;;;18.60;5.95;;;;;;;;;;5055271;28;20057;-68
2023/05/23 03:31:53;;;;;;;26.08;6.53;;;;;;;;;;5055456;28;20045;-67
2023/05/23 03:34:19;;;;;;;9.45;5.45;;;;;;;;;;5055057;28;20021;-67
2023/05/23 03:36:46;;;;;;;13.50;5.70;;;;;;;;;;5055145;28;20086;-68
2023/05/23 03:39:12;;;;;;;6.97;6.18;;;;;;;;;;5055111;28;20031;-68
2023/05/23 03:41:38;;;;;;;8.73;5.55;;;;;;;;;;5054875;28;20452;-67
2023/05/23 03:44:05;;;;;;;6.43;5.50;;;;;;;;;;5053709;28;20032;-68
2023/05/23 03:46:34;;;;;;;7.22;5.10;;;;;;;;;;5054990;28;20082;-68
2023/05/23 03:49:00;;;;;;;8.77;4.90;;;;;;;;;;5054923;28;20037;-68
2023/05/23 03:51:27;;;;;;;5.90;5.15;;;;;;;;;;5054792;28;20025;-68
2023/05/23 03:53:53;;;;;;;8.05;4.93;;;;;;;;;;5055126;28;20021;-67
2023/05/23 03:56:20;;;;;;;6.28;4.40;;;;;;;;;;5055061;28;20021;-68
2023/05/23 03:58:46;;;;;;;6.90;4.80;;;;;;;;;;5054484;28;20021;-68
2023/05/23 04:01:13;;;;;;;5.80;4.85;;;;;;;;;;5054722;28;20039;-67
2023/05/23 04:03:39;;;;;;;6.22;4.68;;;;;;;;;;5054808;28;20024;-68
2023/05/23 04:06:05;;;;;;;18.70;5.38;;;;;;;;;;5054403;28;20031;-68
2023/05/23 04:08:34;;;;;;;5.85;5.25;;;;;;;;;;5054877;28;20021;-68
2023/05/23 04:11:01;;;;;;;7.63;5.20;;;;;;;;;;5054485;28;20021;-68
2023/05/23 04:13:29;;;;;;;9.50;5.45;;;;;;;;;;5053072;28;20039;-68
2023/05/23 04:15:56;;;;;;;6.68;5.20;;;;;;;;;;5054474;28;20498;-68
2023/05/23 04:18:22;;;;;;;9.85;5.63;;;;;;;;;;5054284;28;20028;-68
2023/05/23 04:20:49;;;;;;;7.25;5.18;;;;;;;;;;5054111;28;20474;-67
2023/05/23 04:23:15;;;;;;;19.38;5.93;;;;;;;;;;5054249;28;20032;-68
2023/05/23 04:25:41;;;;;;;5.78;5.18;;;;;;;;;;5054087;28;20025;-68
2023/05/23 04:28:09;;;;;;;12.70;5.60;;;;;;;;;;5054512;28;20041;-68
2023/05/23 04:30:35;;;;;;;6.82;5.03;;;;;;;;;;5054252;28;20017;-68
2023/05/23 04:33:02;;;;;;;25.33;7.13;;;;;;;;;;5053714;28;20611;-67
2023/05/23 04:35:28;;;;;;;6.80;5.82;;;;;;;;;;5053787;28;20035;-68
2023/05/23 04:37:55;;;;;;;153.95;7.93;;;;;;;;;;5053746;28;20086;-68
2023/05/23 04:40:24;;;;;;;43.97;7.10;;;;;;;;;;5053854;28;20017;-68
2023/05/23 04:42:51;;;;;;;101.10;7.40;;;;;;;;;;5052364;28;20298;-68
2023/05/23 04:45:18;;;;;;;178.80;8.95;;;;;;;;;;5054120;28;20019;-68
2023/05/23 04:47:45;;;;;;;137.93;8.18;;;;;;;;;;5053801;28;20046;-68
2023/05/23 04:50:13;;;;;;;184.32;9.35;;;;;;;;;;5053560;28;20023;-68
2023/05/23 04:52:40;;;;;;;222.93;10.05;;;;;;;;;;5053731;28;20021;-68
2023/05/23 04:55:07;;;;;;;166.43;8.80;;;;;;;;;;5053590;28;20500;-68
2023/05/23 04:57:36;;;;;;;94.38;8.23;;;;;;;;;;5053703;28;20013;-68
2023/05/23 05:00:09;;;;;;;124.00;8.85;;;;;;;;;;5053529;28;20029;-68
2023/05/23 05:02:36;;;;;;;24.10;7.20;;;;;;;;;;5053320;28;20412;-68
2023/05/23 05:05:03;;;;;;;24.45;6.85;;;;;;;;;;5052142;28;20028;-67
2023/05/23 05:07:29;;;;;;;36.83;8.00;;;;;;;;;;5053694;28;20021;-68
2023/05/23 05:09:56;;;;;;;58.47;7.93;;;;;;;;;;5053379;28;20371;-68
2023/05/23 05:12:22;;;;;;;45.70;7.45;;;;;;;;;;5053257;28;20040;-68
2023/05/23 05:14:48;;;;;;;27.83;6.72;;;;;;;;;;5053382;28;20024;-68
2023/05/23 05:17:15;;;;;;;41.15;7.28;;;;;;;;;;5053454;28;20025;-67
2023/05/23 05:19:42;;;;;;;11.20;6.55;;;;;;;;;;5053389;28;20375;-68
2023/05/23 05:22:08;;;;;;;33.75;6.40;;;;;;;;;;5053025;28;20508;-68
2023/05/23 05:24:34;;;;;;;21.38;6.38;;;;;;;;;;5053062;28;20025;-68
2023/05/23 05:27:01;;;;;;;12.77;5.32;;;;;;;;;;5053010;28;20539;-67
2023/05/23 05:29:27;;;;;;;27.08;6.32;;;;;;;;;;5053338;28;20024;-68
2023/05/23 05:31:54;;;;;;;26.73;6.38;;;;;;;;;;5052589;28;20048;-68
2023/05/23 05:34:21;;;;;;;18.80;6.70;;;;;;;;;;5053043;28;20033;-68
2023/05/23 05:36:47;;;;;;;14.65;5.95;;;;;;;;;;5052715;28;20035;-68
2023/05/23 05:39:14;;;;;;;20.20;6.15;;;;;;;;;;5052909;28;20025;-68
2023/05/23 05:41:40;;;;;;;22.73;6.70;;;;;;;;;;5052710;28;20497;-68
2023/05/23 05:44:07;;;;;;;14.57;6.72;;;;;;;;;;5052785;28;20029;-68
2023/05/23 05:46:34;;;;;;;13.50;6.13;;;;;;;;;;5052499;28;20047;-68
2023/05/23 05:49:00;;;;;;;16.60;6.30;;;;;;;;;;5051961;28;20029;-67
2023/05/23 05:51:26;;;;;;;34.53;6.05;;;;;;;;;;5052493;28;20017;-68
2023/05/23 05:53:53;;;;;;;51.22;6.13;;;;;;;;;;5052753;28;20078;-68
2023/05/23 05:56:21;;;;;;;13.93;5.60;;;;;;;;;;5052330;28;20032;-68
2023/05/23 05:58:47;;;;;;;121.07;7.07;;;;;;;;;;5052662;28;20043;-68
2023/05/23 06:01:14;;;;;;;11.80;5.35;;;;;;;;;;5052262;28;20075;-68
2023/05/23 06:03:40;;;;;;;22.58;5.65;;;;;;;;;;5052241;28;20021;-68
2023/05/23 06:06:07;;;;;;;57.70;6.05;;;;;;;;;;5052243;28;20031;-68
2023/05/23 06:08:34;;;;;;;9.40;5.50;;;;;;;;;;5052209;28;20058;-68
2023/05/23 06:11:00;;;;;;;11.77;4.70;;;;;;;;;;5052130;28;20039;-68
2023/05/23 06:13:26;;;;;;;37.45;5.47;;;;;;;;;;5052013;28;20021;-68
2023/05/23 06:15:53;;;;;;;9.80;5.10;;;;;;;;;;5049612;28;20041;-68
2023/05/23 06:18:19;;;;;;;11.85;5.65;;;;;;;;;;5048828;28;20077;-67
2023/05/23 06:20:45;;;;;;;9.43;5.47;;;;;;;;;;5051376;28;20039;-68
2023/05/23 06:23:12;;;;;;;19.70;4.88;;;;;;;;;;5051338;28;20055;-66
2023/05/23 06:25:39;;;;;;;25.92;5.22;;;;;;;;;;5051636;28;20031;-75
2023/05/23 16:24:36;;;;;;;11.80;7.53;;;;;;;;;;5068540;28;20387;-69
2023/05/23 16:27:02;;;;;;;14.27;7.57;;;;;;;;;;5068150;28;20388;-70
2023/05/23 16:29:29;;;;;;;16.30;8.15;;;;;;;;;;5068374;28;20025;-69
2023/05/23 16:31:55;;;;;;;9.05;7.00;;;;;;;;;;5068551;28;20013;-68
2023/05/23 16:34:21;;;;;;;8.10;6.53;;;;;;;;;;5067181;28;20031;-68
2023/05/23 16:36:48;;;;;;;10.30;7.60;;;;;;;;;;5068833;28;20020;-74
2023/05/23 16:39:15;;;;;;;11.55;6.50;;;;;;;;;;5068341;28;20387;-68
2023/05/23 16:41:41;;;;;;;12.95;6.78;;;;;;;;;;5068298;28;20031;-73
2023/05/23 16:44:07;;;;;;;10.93;5.90;;;;;;;;;;5068312;28;20037;-69
2023/05/23 16:46:34;;;;;;;10.82;6.90;;;;;;;;;;5068440;28;20548;-67
2023/05/23 16:49:00;;;;;;;11.00;6.30;;;;;;;;;;5068339;28;20417;-66
2023/05/23 16:51:27;;;;;;;10.75;7.05;;;;;;;;;;5068434;28;20062;-67
2023/05/23 16:53:53;;;;;;;13.95;7.68;;;;;;;;;;5068057;28;20516;-70
2023/05/23 16:56:20;;;;;;;10.75;8.00;;;;;;;;;;5066160;28;20028;-67
2023/05/23 16:58:46;;;;;;;9.88;7.57;;;;;;;;;;5068173;28;20028;-74
2023/05/23 17:01:15;;;;;;;10.77;7.53;;;;;;;;;;5067961;28;20040;-68
2023/05/23 17:03:41;;;;;;;12.70;7.70;;;;;;;;;;5067865;28;20424;-69
2023/05/23 17:06:07;;;;;;;12.35;7.82;;;;;;;;;;5068088;28;20025;-69
2023/05/23 17:08:34;;;;;;;10.40;8.10;;;;;;;;;;5065630;28;20516;-69
2023/05/23 17:11:00;;;;;;;11.70;7.65;;;;;;;;;;5068093;28;20029;-69
2023/05/23 17:13:26;;;;;;;8.50;7.60;;;;;;;;;;5067831;28;20017;-67
2023/05/23 17:15:53;;;;;;;11.82;9.13;;;;;;;;;;5067895;28;20035;-68
2023/05/23 17:18:19;;;;;;;11.90;8.80;;;;;;;;;;5067967;28;20028;-68
2023/05/23 17:20:45;;;;;;;9.95;7.80;;;;;;;;;;5067809;28;20033;-68
2023/05/23 17:23:12;;;;;;;13.23;8.57;;;;;;;;;;5067447;28;20044;-68
2023/05/23 17:25:38;;;;;;;14.52;8.98;;;;;;;;;;5067690;28;20047;-68
2023/05/23 17:28:05;;;;;;;11.15;8.82;;;;;;;;;;5067738;28;20050;-68
2023/05/23 17:30:31;;;;;;;12.27;9.57;;;;;;;;;;5067582;28;20023;-68
2023/05/23 17:32:57;;;;;;;10.38;9.27;;;;;;;;;;5066380;28;20036;-68
2023/05/23 17:35:24;;;;;;;14.23;10.50;;;;;;;;;;5057644;28;20507;-68
2023/05/23 17:37:51;;;;;;;10.30;9.15;;;;;;;;;;5054202;28;20389;-68
2023/05/23 17:40:17;;;;;;;10.20;8.75;;;;;;;;;;5054822;28;20027;-68
2023/05/23 17:42:44;;;;;;;12.27;8.85;;;;;;;;;;5054710;28;20082;-68
2023/05/23 17:45:11;;;;;;;8.68;7.28;;;;;;;;;;5054736;28;20025;-68
2023/05/23 17:47:38;;;;;;;12.55;7.82;;;;;;;;;;5054613;28;20486;-68
2023/05/23 17:50:05;;;;;;;13.05;7.80;;;;;;;;;;5054359;28;20086;-68
2023/05/23 17:52:31;;;;;;;9.15;6.93;;;;;;;;;;5054617;28;20024;-68
2023/05/23 17:54:58;;;;;;;11.25;8.18;;;;;;;;;;5054447;28;20029;-68
2023/05/23 17:57:24;;;;;;;10.27;7.63;;;;;;;;;;5053145;28;20017;-68
2023/05/23 17:59:50;;;;;;;12.52;7.68;;;;;;;;;;5054453;28;20033;-68
2023/05/23 18:02:17;;;;;;;8.85;7.10;;;;;;;;;;5054259;28;20039;-68
2023/05/23 18:04:43;;;;;;;14.30;7.88;;;;;;;;;;5054011;28;20036;-68
2023/05/23 18:07:13;;;;;;;7.63;6.78;;;;;;;;;;5054310;28;20017;-67
2023/05/23 18:09:39;;;;;;;10.00;7.90;;;;;;;;;;5054117;28;20397;-68
2023/05/23 18:12:06;;;;;;;11.15;7.43;;;;;;;;;;5054113;28;20025;-68
2023/05/23 18:14:32;;;;;;;8.20;5.90;;;;;;;;;;5054155;28;20474;-68
2023/05/23 18:16:59;;;;;;;9.38;6.68;;;;;;;;;;5054005;28;20047;-68
2023/05/23 18:19:25;;;;;;;8.85;6.40;;;;;;;;;;5054101;28;20017;-68
2023/05/23 18:21:51;;;;;;;10.02;6.50;;;;;;;;;;5054012;28;20040;-68
2023/05/23 18:24:18;;;;;;;8.43;6.30;;;;;;;;;;5053617;28;20417;-67
2023/05/23 18:26:44;;;;;;;6.32;5.72;;;;;;;;;;5053792;28;20448;-67
2023/05/23 18:29:10;;;;;;;7.43;5.10;;;;;;;;;;5053702;28;20039;-68
2023/05/23 18:31:37;;;;;;;9.07;5.30;;;;;;;;;;5053615;28;20025;-68
2023/05/23 18:34:03;;;;;;;10.00;5.47;;;;;;;;;;5053412;28;20382;-68
2023/05/23 18:36:30;;;;;;;7.18;5.90;;;;;;;;;;5053833;28;20478;-67
2023/05/23 18:38:56;;;;;;;8.35;5.78;;;;;;;;;;5053512;28;20043;-68
2023/05/23 18:41:23;;;;;;;6.03;5.40;;;;;;;;;;5053705;28;20028;-68
2023/05/23 18:43:49;;;;;;;10.25;6.20;;;;;;;;;;5053293;28;20039;-68
2023/05/23 18:46:16;;;;;;;9.50;6.15;;;;;;;;;;5052506;28;20091;-68
2023/05/23 18:48:42;;;;;;;7.22;5.65;;;;;;;;;;5053412;28;20028;-68
2023/05/23 18:51:11;;;;;;;8.45;5.88;;;;;;;;;;5053549;28;20500;-68
2023/05/23 18:53:37;;;;;;;7.43;5.45;;;;;;;;;;5053224;28;20059;-68
2023/05/23 18:56:03;;;;;;;6.53;5.38;;;;;;;;;;5053508;28;20032;-67
2023/05/23 18:58:30;;;;;;;9.73;5.45;;;;;;;;;;5051677;28;20036;-68
2023/05/23 19:01:02;;;;;;;6.70;5.82;;;;;;;;;;5053108;28;20017;-68
2023/05/23 19:03:29;;;;;;;8.80;5.30;;;;;;;;;;5052733;28;20049;-68
2023/05/23 19:06:00;;;;;;;8.55;5.90;;;;;;;;;;5052993;28;20021;-68
2023/05/23 19:08:27;;;;;;;6.32;5.10;;;;;;;;;;5052912;28;20393;-68
2023/05/23 19:10:53;;;;;;;7.60;5.35;;;;;;;;;;5052934;28;20023;-68
2023/05/23 19:13:20;;;;;;;6.60;5.72;;;;;;;;;;5052721;28;20033;-68
2023/05/23 19:15:48;;;;;;;7.05;5.55;;;;;;;;;;5053066;28;20025;-68
2023/05/23 19:18:16;;;;;;;7.20;5.45;;;;;;;;;;5052584;28;20029;-68
2023/05/23 19:20:42;;;;;;;6.35;4.70;;;;;;;;;;5052993;28;20009;-68
2023/05/23 19:23:09;;;;;;;9.60;5.80;;;;;;;;;;5052406;28;20422;-68
2023/05/23 19:25:36;;;;;;;7.43;5.13;;;;;;;;;;5052703;28;20031;-68
2023/05/23 19:28:03;;;;;;;6.68;5.40;;;;;;;;;;5052537;28;20393;-68
2023/05/23 19:30:29;;;;;;;6.22;4.60;;;;;;;;;;5052525;28;20035;-67
2023/05/23 19:32:55;;;;;;;7.00;5.05;;;;;;;;;;5052344;28;20014;-68
2023/05/23 19:35:22;;;;;;;6.53;5.00;;;;;;;;;;5052852;28;20036;-68
2023/05/23 19:37:49;;;;;;;5.82;5.13;;;;;;;;;;5052748;28;20017;-68
2023/05/23 19:40:15;;;;;;;8.98;5.15;;;;;;;;;;5052328;28;20020;-68
2023/05/23 19:42:41;;;;;;;4.53;4.13;;;;;;;;;;5052309;28;20029;-67
2023/05/23 19:45:08;;;;;;;7.60;4.80;;;;;;;;;;5052618;28;20033;-68
2023/05/23 19:47:34;;;;;;;4.88;4.15;;;;;;;;;;5052121;28;20074;-68
2023/05/23 19:50:01;;;;;;;5.45;4.03;;;;;;;;;;5052421;28;20037;-68
2023/05/23 19:52:27;;;;;;;4.53;4.10;;;;;;;;;;5052406;28;20427;-67
2023/05/23 19:54:53;;;;;;;8.68;4.30;;;;;;;;;;5052442;28;20036;-68
2023/05/23 19:57:20;;;;;;;8.80;4.80;;;;;;;;;;5051980;28;20020;-68
2023/05/23 19:59:46;;;;;;;5.50;4.35;;;;;;;;;;5051066;28;20029;-67
2023/05/23 20:02:13;;;;;;;6.57;4.68;;;;;;;;;;5052124;28;20029;-68
2023/05/23 20:04:39;;;;;;;6.45;4.60;;;;;;;;;;5052182;28;20416;-68
2023/05/23 20:07:06;;;;;;;4.72;4.28;;;;;;;;;;5052242;28;20028;-68
2023/05/23 20:09:32;;;;;;;5.47;4.85;;;;;;;;;;5050959;28;20040;-68
2023/05/23 20:11:59;;;;;;;7.43;5.72;;;;;;;;;;5052079;28;20025;-68
2023/05/23 20:14:25;;;;;;;7.95;5.15;;;;;;;;;;5052115;28;20078;-68
2023/05/23 20:16:52;;;;;;;7.55;4.93;;;;;;;;;;5051927;28;20017;-68
2023/05/23 20:19:19;;;;;;;7.78;5.43;;;;;;;;;;5052005;28;20409;-68
2023/05/23 20:21:45;;;;;;;7.47;5.05;;;;;;;;;;5052278;28;20029;-67
2023/05/23 20:24:13;;;;;;;6.18;4.95;;;;;;;;;;5050485;28;20053;-67
2023/05/23 20:26:40;;;;;;;7.35;5.07;;;;;;;;;;5051977;28;20396;-68
2023/05/23 20:29:06;;;;;;;7.05;5.43;;;;;;;;;;5051960;28;20377;-68
2023/05/23 20:31:33;;;;;;;7.10;5.13;;;;;;;;;;5051641;28;20405;-68
2023/05/23 20:33:59;;;;;;;8.07;5.30;;;;;;;;;;5052189;28;20029;-68
2023/05/23 20:36:26;;;;;;;9.05;5.50;;;;;;;;;;5050865;28;20025;-68
2023/05/23 20:38:52;;;;;;;7.25;4.80;;;;;;;;;;5052085;28;20090;-68
2023/05/23 20:41:19;;;;;;;6.05;5.30;;;;;;;;;;5051890;28;20485;-68
2023/05/23 20:43:47;;;;;;;8.98;5.50;;;;;;;;;;5051490;28;20482;-68
2023/05/23 20:46:13;;;;;;;15.07;5.97;;;;;;;;;;5051512;28;20025;-68
2023/05/23 20:48:40;;;;;;;7.18;5.95;;;;;;;;;;5051695;28;20036;-68
2023/05/23 20:51:06;;;;;;;12.23;6.38;;;;;;;;;;5051767;28;20028;-68
2023/05/23 20:53:33;;;;;;;6.65;5.95;;;;;;;;;;5051668;28;20139;-68
2023/05/23 20:56:00;;;;;;;10.63;5.75;;;;;;;;;;5051794;28;20021;-68
2023/05/23 20:58:26;;;;;;;12.80;6.63;;;;;;;;;;5051602;28;20634;-67
2023/05/23 21:00:53;;;;;;;9.93;6.55;;;;;;;;;;5051360;28;20021;-68
2023/05/23 21:03:19;;;;;;;10.10;6.60;;;;;;;;;;5051587;28;20041;-67
2023/05/23 21:05:46;;;;;;;9.85;7.10;;;;;;;;;;5051582;28;20470;-68
2023/05/23 21:08:12;;;;;;;8.13;6.80;;;;;;;;;;5051450;28;20025;-68
2023/05/23 21:10:38;;;;;;;10.02;6.20;;;;;;;;;;5054090;28;20027;-68
2023/05/23 21:13:05;;;;;;;9.60;5.68;;;;;;;;;;5055124;28;20029;-68
2023/05/23 21:15:31;;;;;;;13.60;6.50;;;;;;;;;;5055359;28;20021;-68
2023/05/23 21:17:58;;;;;;;10.55;6.35;;;;;;;;;;5055569;28;20126;-68
2023/05/23 21:20:24;;;;;;;9.55;7.32;;;;;;;;;;5055190;28;20025;-68
2023/05/23 21:22:50;;;;;;;14.52;7.68;;;;;;;;;;5053844;28;20045;-67
2023/05/23 21:25:17;;;;;;;10.70;8.25;;;;;;;;;;5055143;28;20037;-68
2023/05/23 21:27:43;;;;;;;10.77;7.97;;;;;;;;;;5055069;28;20031;-68
2023/05/23 21:30:10;;;;;;;12.35;7.45;;;;;;;;;;5054934;28;20393;-68
2023/05/23 21:32:36;;;;;;;10.00;7.30;;;;;;;;;;5055003;28;20019;-67
2023/05/23 21:35:02;;;;;;;9.77;7.80;;;;;;;;;;5054895;28;20024;-67
2023/05/23 21:37:29;;;;;;;11.13;7.32;;;;;;;;;;5055024;28;20070;-67
2023/05/23 21:39:55;;;;;;;8.82;7.18;;;;;;;;;;5055135;28;20086;-68
2023/05/23 21:42:23;;;;;;;11.15;8.32;;;;;;;;;;5054370;28;20025;-68
2023/05/23 21:44:49;;;;;;;9.70;7.80;;;;;;;;;;5054661;28;20400;-67
2023/05/23 21:47:16;;;;;;;12.93;8.23;;;;;;;;;;5053440;28;20031;-67
2023/05/23 21:49:42;;;;;;;10.10;7.40;;;;;;;;;;5054829;28;20036;-68
2023/05/23 21:52:08;;;;;;;11.35;6.88;;;;;;;;;;5054565;28;20017;-68
2023/05/23 21:54:35;;;;;;;13.38;7.00;;;;;;;;;;5054591;28;20033;-68
2023/05/23 21:57:01;;;;;;;12.52;6.97;;;;;;;;;;5054198;28;20025;-67
2023/05/23 21:59:27;;;;;;;8.05;6.55;;;;;;;;;;5054753;28;20025;-68
2023/05/23 22:01:54;;;;;;;21.35;6.88;;;;;;;;;;5054505;28;20051;-68
2023/05/23 22:04:20;;;;;;;9.88;6.60;;;;;;;;;;5054395;28;20035;-67
2023/05/23 22:06:46;;;;;;;11.57;7.10;;;;;;;;;;5054290;28;20040;-68
2023/05/23 22:09:14;;;;;;;9.15;6.88;;;;;;;;;;5054569;28;20025;-67
2023/05/23 22:11:40;;;;;;;11.68;7.03;;;;;;;;;;5053910;28;20500;-67
2023/05/23 22:14:07;;;;;;;8.23;6.80;;;;;;;;;;5054153;28;20440;-67
2023/05/23 22:16:39;;;;;;;15.38;6.78;;;;;;;;;;5054527;28;20024;-67
2023/05/23 22:19:06;;;;;;;7.43;6.15;;;;;;;;;;5054137;28;20025;-67
2023/05/23 22:21:32;;;;;;;10.02;6.55;;;;;;;;;;5053819;28;20039;-67
2023/05/23 22:23:59;;;;;;;8.00;6.30;;;;;;;;;;5053914;28;20059;-68
2023/05/23 22:26:26;;;;;;;8.60;6.55;;;;;;;;;;5053855;28;20490;-68
2023/05/23 22:28:52;;;;;;;9.13;5.93;;;;;;;;;;5054005;28;20029;-67
2023/05/23 22:31:18;;;;;;;8.73;6.05;;;;;;;;;;5054012;28;20512;-67
2023/05/23 22:33:45;;;;;;;10.32;6.95;;;;;;;;;;5053993;28;20028;-68
2023/05/23 22:36:11;;;;;;;12.80;6.38;;;;;;;;;;5053999;28;20017;-67
2023/05/23 22:38:37;;;;;;;12.32;6.90;;;;;;;;;;5053681;28;20021;-66
2023/05/23 22:41:04;;;;;;;8.85;6.75;;;;;;;;;;5053391;28;20032;-67
2023/05/23 22:43:30;;;;;;;14.43;6.45;;;;;;;;;;5053446;28;20033;-68
2023/05/23 22:45:57;;;;;;;14.88;7.00;;;;;;;;;;5053989;28;20035;-67
2023/05/23 22:48:27;;;;;;;8.75;6.70;;;;;;;;;;5052406;28;20021;-68
2023/05/23 22:50:53;;;;;;;10.32;6.43;;;;;;;;;;5053502;28;20412;-67
2023/05/23 22:53:21;;;;;;;10.20;6.47;;;;;;;;;;5053357;28;20033;-68
2023/05/23 22:55:50;;;;;;;11.98;6.82;;;;;;;;;;5053427;28;20021;-68
2023/05/23 22:58:16;;;;;;;11.10;7.05;;;;;;;;;;5053220;28;20090;-67
2023/05/23 23:00:44;;;;;;;12.02;7.68;;;;;;;;;;5053270;28;20405;-67
2023/05/23 23:03:10;;;;;;;15.73;7.65;;;;;;;;;;5053405;28;20444;-67
2023/05/23 23:05:37;;;;;;;9.43;7.53;;;;;;;;;;5053174;28;20028;-67
2023/05/23 23:08:03;;;;;;;10.68;7.57;;;;;;;;;;5053115;28;20366;-68
2023/05/23 23:10:29;;;;;;;12.13;7.97;;;;;;;;;;5052881;28;20113;-67
2023/05/23 23:12:56;;;;;;;16.27;7.75;;;;;;;;;;5053215;28;20017;-67
2023/05/23 23:15:22;;;;;;;9.43;7.50;;;;;;;;;;5053249;28;20074;-67
2023/05/23 23:17:49;;;;;;;16.38;8.02;;;;;;;;;;5053174;28;20035;-67
2023/05/23 23:20:16;;;;;;;11.40;7.68;;;;;;;;;;5052870;28;20051;-67
2023/05/23 23:22:42;;;;;;;13.95;8.23;;;;;;;;;;5051219;28;20047;-68
2023/05/23 23:25:09;;;;;;;11.95;7.65;;;;;;;;;;5052987;28;20043;-68
2023/05/23 23:27:38;;;;;;;11.23;7.40;;;;;;;;;;5052705;28;20021;-67
2023/05/23 23:30:08;;;;;;;11.18;7.32;;;;;;;;;;5053040;28;20021;-67
2023/05/23 23:32:34;;;;;;;12.27;8.13;;;;;;;;;;5052227;28;20404;-67
2023/05/23 23:35:01;;;;;;;12.77;7.55;;;;;;;;;;5052787;28;20024;-67
2023/05/23 23:37:27;;;;;;;11.38;8.05;;;;;;;;;;5052674;28;20474;-68
2023/05/23 23:39:53;;;;;;;11.85;8.05;;;;;;;;;;5052398;28;20029;-68
2023/05/23 23:42:20;;;;;;;12.52;8.82;;;;;;;;;;5052654;28;20033;-67
2023/05/23 23:44:46;;;;;;;15.63;8.27;;;;;;;;;;5052427;28;20515;-67
2023/05/23 23:47:12;;;;;;;9.80;7.53;;;;;;;;;;5052484;28;20035;-67
2023/05/23 23:49:39;;;;;;;16.25;8.82;;;;;;;;;;5052500;28;20039;-67
2023/05/23 23:52:05;;;;;;;10.18;8.43;;;;;;;;;;5052448;28;20017;-67
2023/05/23 23:54:32;;;;;;;11.65;8.43;;;;;;;;;;5052209;28;20027;-68
2023/05/23 23:56:58;;;;;;;14.10;8.07;;;;;;;;;;5052236;28;20486;-67
2023/05/23 23:59:25;;;;;;;14.75;8.45;;;;;;;;;;5052197;28;20086;-68
